sensor_id;sensor_type;location;lat;lon;timestamp;P1;durP1;ratioP1;P2;durP2;ratioP2
22172;SDS011;11252;50.596;17.648;2023-03-13T00:02:00;6.20;;;4.40;;
22172;SDS011;11252;50.596;17.648;2023-03-13T00:04:27;4.60;;;4.07;;
22172;SDS011;11252;50.596;17.648;2023-03-13T00:06:55;5.53;;;3.90;;
22172;SDS011;11252;50.596;17.648;2023-03-13T00:09:22;3.93;;;3.23;;
22172;SDS011;11252;50.596;17.648;2023-03-13T00:11:49;6.17;;;3.20;;
22172;SDS011;11252;50.596;17.648;2023-03-13T00:14:17;3.60;;;2.80;;
22172;SDS011;11252;50.596;17.648;2023-03-13T00:16:44;2.97;;;2.33;;
22172;SDS011;11252;50.596;17.648;2023-03-13T00:19:12;3.73;;;2.80;;
22172;SDS011;11252;50.596;17.648;2023-03-13T00:21:40;3.07;;;2.60;;
22172;SDS011;11252;50.596;17.648;2023-03-13T00:24:09;3.33;;;3.03;;
22172;SDS011;11252;50.596;17.648;2023-03-13T00:26:37;3.00;;;2.70;;
22172;SDS011;11252;50.596;17.648;2023-03-13T00:29:04;3.43;;;3.13;;
22172;SDS011;11252;50.596;17.648;2023-03-13T00:31:32;3.57;;;3.27;;
22172;SDS011;11252;50.596;17.648;2023-03-13T00:34:00;3.80;;;3.23;;
22172;SDS011;11252;50.596;17.648;2023-03-13T00:36:30;3.23;;;2.93;;
22172;SDS011;11252;50.596;17.648;2023-03-13T00:39:00;3.53;;;3.10;;
22172;SDS011;11252;50.596;17.648;2023-03-13T00:41:30;4.73;;;3.30;;
22172;SDS011;11252;50.596;17.648;2023-03-13T00:43:59;4.17;;;3.80;;
22172;SDS011;11252;50.596;17.648;2023-03-13T00:46:27;3.93;;;3.43;;
22172;SDS011;11252;50.596;17.648;2023-03-13T00:48:56;4.27;;;3.83;;
22172;SDS011;11252;50.596;17.648;2023-03-13T00:51:24;3.90;;;3.50;;
22172;SDS011;11252;50.596;17.648;2023-03-13T00:53:53;5.13;;;3.57;;
22172;SDS011;11252;50.596;17.648;2023-03-13T00:56:22;3.50;;;3.20;;
22172;SDS011;11252;50.596;17.648;2023-03-13T00:58:49;3.70;;;3.40;;
22172;SDS011;11252;50.596;17.648;2023-03-13T01:01:18;4.17;;;3.30;;
22172;SDS011;11252;50.596;17.648;2023-03-13T01:03:53;3.80;;;3.17;;
22172;SDS011;11252;50.596;17.648;2023-03-13T01:06:26;5.27;;;3.83;;
22172;SDS011;11252;50.596;17.648;2023-03-13T01:08:57;5.70;;;3.67;;
22172;SDS011;11252;50.596;17.648;2023-03-13T01:11:29;3.90;;;3.53;;
22172;SDS011;11252;50.596;17.648;2023-03-13T01:14:04;4.87;;;4.20;;
22172;SDS011;11252;50.596;17.648;2023-03-13T01:16:35;4.60;;;4.20;;
22172;SDS011;11252;50.596;17.648;2023-03-13T01:19:06;4.40;;;3.87;;
22172;SDS011;11252;50.596;17.648;2023-03-13T01:21:39;4.30;;;3.93;;
22172;SDS011;11252;50.596;17.648;2023-03-13T01:24:08;5.23;;;3.87;;
22172;SDS011;11252;50.596;17.648;2023-03-13T01:26:39;4.07;;;3.77;;
22172;SDS011;11252;50.596;17.648;2023-03-13T01:29:06;4.30;;;3.80;;
22172;SDS011;11252;50.596;17.648;2023-03-13T01:31:34;4.07;;;3.67;;
22172;SDS011;11252;50.596;17.648;2023-03-13T01:34:03;4.17;;;3.77;;
22172;SDS011;11252;50.596;17.648;2023-03-13T01:36:31;4.10;;;3.70;;
22172;SDS011;11252;50.596;17.648;2023-03-13T01:39:01;4.00;;;3.70;;
22172;SDS011;11252;50.596;17.648;2023-03-13T01:41:29;3.67;;;3.37;;
22172;SDS011;11252;50.596;17.648;2023-03-13T01:43:57;4.53;;;3.50;;
22172;SDS011;11252;50.596;17.648;2023-03-13T01:46:26;4.00;;;3.60;;
22172;SDS011;11252;50.596;17.648;2023-03-13T01:48:59;4.30;;;3.83;;
22172;SDS011;11252;50.596;17.648;2023-03-13T01:51:51;3.67;;;3.37;;
22172;SDS011;11252;50.596;17.648;2023-03-13T01:54:38;4.40;;;3.83;;
22172;SDS011;11252;50.596;17.648;2023-03-13T01:57:23;3.90;;;3.60;;
22172;SDS011;11252;50.596;17.648;2023-03-13T02:00:01;6.60;;;3.63;;
22172;SDS011;11252;50.596;17.648;2023-03-13T02:02:38;4.20;;;3.87;;
22172;SDS011;11252;50.596;17.648;2023-03-13T02:05:08;3.90;;;3.50;;
22172;SDS011;11252;50.596;17.648;2023-03-13T02:07:37;4.73;;;3.47;;
22172;SDS011;11252;50.596;17.648;2023-03-13T02:10:08;4.57;;;3.70;;
22172;SDS011;11252;50.596;17.648;2023-03-13T02:12:37;5.17;;;3.93;;
22172;SDS011;11252;50.596;17.648;2023-03-13T02:15:08;4.03;;;3.60;;
22172;SDS011;11252;50.596;17.648;2023-03-13T02:17:39;5.23;;;3.63;;
22172;SDS011;11252;50.596;17.648;2023-03-13T02:20:08;4.53;;;4.13;;
22172;SDS011;11252;50.596;17.648;2023-03-13T02:22:42;4.07;;;3.50;;
22172;SDS011;11252;50.596;17.648;2023-03-13T02:25:41;3.70;;;3.07;;
22172;SDS011;11252;50.596;17.648;2023-03-13T02:28:17;4.10;;;3.43;;
22172;SDS011;11252;50.596;17.648;2023-03-13T02:30:52;3.93;;;3.53;;
22172;SDS011;11252;50.596;17.648;2023-03-13T02:33:22;3.90;;;3.60;;
22172;SDS011;11252;50.596;17.648;2023-03-13T02:35:54;3.90;;;3.53;;
22172;SDS011;11252;50.596;17.648;2023-03-13T02:38:23;4.50;;;3.03;;
22172;SDS011;11252;50.596;17.648;2023-03-13T02:40:53;5.23;;;4.03;;
22172;SDS011;11252;50.596;17.648;2023-03-13T02:43:28;4.20;;;3.83;;
22172;SDS011;11252;50.596;17.648;2023-03-13T02:48:35;5.57;;;4.10;;
22172;SDS011;11252;50.596;17.648;2023-03-13T02:51:32;7.30;;;4.17;;
22172;SDS011;11252;50.596;17.648;2023-03-13T02:54:09;7.00;;;4.63;;
22172;SDS011;11252;50.596;17.648;2023-03-13T02:56:41;5.00;;;3.83;;
22172;SDS011;11252;50.596;17.648;2023-03-13T02:59:11;6.20;;;4.43;;
22172;SDS011;11252;50.596;17.648;2023-03-13T03:01:38;7.53;;;4.40;;
22172;SDS011;11252;50.596;17.648;2023-03-13T03:04:05;7.27;;;4.60;;
22172;SDS011;11252;50.596;17.648;2023-03-13T03:06:34;7.30;;;5.23;;
22172;SDS011;11252;50.596;17.648;2023-03-13T03:09:02;6.27;;;5.17;;
22172;SDS011;11252;50.596;17.648;2023-03-13T03:11:30;7.13;;;5.00;;
22172;SDS011;11252;50.596;17.648;2023-03-13T03:13:58;6.97;;;5.23;;
22172;SDS011;11252;50.596;17.648;2023-03-13T03:16:26;9.63;;;5.67;;
22172;SDS011;11252;50.596;17.648;2023-03-13T03:18:55;9.47;;;5.20;;
22172;SDS011;11252;50.596;17.648;2023-03-13T03:21:23;8.47;;;5.53;;
22172;SDS011;11252;50.596;17.648;2023-03-13T03:23:50;11.70;;;5.50;;
22172;SDS011;11252;50.596;17.648;2023-03-13T03:26:18;9.27;;;4.97;;
22172;SDS011;11252;50.596;17.648;2023-03-13T03:28:46;7.43;;;5.20;;
22172;SDS011;11252;50.596;17.648;2023-03-13T03:31:14;12.13;;;6.07;;
22172;SDS011;11252;50.596;17.648;2023-03-13T03:33:43;10.60;;;6.43;;
22172;SDS011;11252;50.596;17.648;2023-03-13T03:36:18;12.27;;;6.33;;
22172;SDS011;11252;50.596;17.648;2023-03-13T03:38:47;8.53;;;6.87;;
22172;SDS011;11252;50.596;17.648;2023-03-13T03:41:15;6.60;;;5.30;;
22172;SDS011;11252;50.596;17.648;2023-03-13T03:43:44;7.43;;;4.77;;
22172;SDS011;11252;50.596;17.648;2023-03-13T03:46:13;10.10;;;7.17;;
22172;SDS011;11252;50.596;17.648;2023-03-13T03:48:40;12.83;;;11.53;;
22172;SDS011;11252;50.596;17.648;2023-03-13T03:51:08;8.57;;;6.27;;
22172;SDS011;11252;50.596;17.648;2023-03-13T03:53:36;5.30;;;3.73;;
22172;SDS011;11252;50.596;17.648;2023-03-13T03:56:03;5.97;;;3.63;;
22172;SDS011;11252;50.596;17.648;2023-03-13T03:58:31;8.50;;;4.27;;
22172;SDS011;11252;50.596;17.648;2023-03-13T04:00:59;5.53;;;4.10;;
22172;SDS011;11252;50.596;17.648;2023-03-13T04:03:26;5.13;;;3.50;;
22172;SDS011;11252;50.596;17.648;2023-03-13T04:05:55;5.87;;;4.37;;
22172;SDS011;11252;50.596;17.648;2023-03-13T04:08:22;7.90;;;3.60;;
22172;SDS011;11252;50.596;17.648;2023-03-13T04:10:53;6.67;;;3.83;;
22172;SDS011;11252;50.596;17.648;2023-03-13T04:13:20;11.87;;;4.57;;
22172;SDS011;11252;50.596;17.648;2023-03-13T04:15:47;5.07;;;3.67;;
22172;SDS011;11252;50.596;17.648;2023-03-13T04:18:15;5.97;;;3.50;;
22172;SDS011;11252;50.596;17.648;2023-03-13T04:20:43;5.00;;;3.40;;
22172;SDS011;11252;50.596;17.648;2023-03-13T04:23:11;5.57;;;3.17;;
22172;SDS011;11252;50.596;17.648;2023-03-13T04:25:38;6.83;;;3.83;;
22172;SDS011;11252;50.596;17.648;2023-03-13T04:28:07;6.37;;;3.87;;
22172;SDS011;11252;50.596;17.648;2023-03-13T04:30:34;9.03;;;4.10;;
22172;SDS011;11252;50.596;17.648;2023-03-13T04:33:01;7.60;;;4.50;;
22172;SDS011;11252;50.596;17.648;2023-03-13T04:35:29;10.47;;;5.97;;
22172;SDS011;11252;50.596;17.648;2023-03-13T04:37:57;10.97;;;6.57;;
22172;SDS011;11252;50.596;17.648;2023-03-13T04:40:26;9.70;;;5.93;;
22172;SDS011;11252;50.596;17.648;2023-03-13T04:42:55;11.53;;;6.27;;
22172;SDS011;11252;50.596;17.648;2023-03-13T04:45:22;12.23;;;6.03;;
22172;SDS011;11252;50.596;17.648;2023-03-13T04:47:50;15.67;;;5.73;;
22172;SDS011;11252;50.596;17.648;2023-03-13T04:50:17;11.07;;;6.97;;
22172;SDS011;11252;50.596;17.648;2023-03-13T04:52:45;10.67;;;4.97;;
22172;SDS011;11252;50.596;17.648;2023-03-13T04:55:14;11.00;;;5.80;;
22172;SDS011;11252;50.596;17.648;2023-03-13T04:57:42;13.57;;;7.80;;
22172;SDS011;11252;50.596;17.648;2023-03-13T05:00:10;11.73;;;6.17;;
22172;SDS011;11252;50.596;17.648;2023-03-13T05:02:38;7.80;;;4.90;;
22172;SDS011;11252;50.596;17.648;2023-03-13T05:05:05;14.33;;;9.43;;
22172;SDS011;11252;50.596;17.648;2023-03-13T05:07:33;11.53;;;7.13;;
22172;SDS011;11252;50.596;17.648;2023-03-13T05:10:01;24.67;;;10.97;;
22172;SDS011;11252;50.596;17.648;2023-03-13T05:12:28;9.70;;;5.30;;
22172;SDS011;11252;50.596;17.648;2023-03-13T05:14:56;15.40;;;6.37;;
22172;SDS011;11252;50.596;17.648;2023-03-13T05:17:23;12.03;;;7.13;;
22172;SDS011;11252;50.596;17.648;2023-03-13T05:19:51;12.60;;;8.00;;
22172;SDS011;11252;50.596;17.648;2023-03-13T05:22:18;11.93;;;8.27;;
22172;SDS011;11252;50.596;17.648;2023-03-13T05:24:46;11.13;;;6.60;;
22172;SDS011;11252;50.596;17.648;2023-03-13T05:27:18;10.53;;;6.33;;
22172;SDS011;11252;50.596;17.648;2023-03-13T05:29:46;11.13;;;7.83;;
22172;SDS011;11252;50.596;17.648;2023-03-13T05:32:13;15.83;;;10.47;;
22172;SDS011;11252;50.596;17.648;2023-03-13T05:34:41;16.57;;;10.83;;
22172;SDS011;11252;50.596;17.648;2023-03-13T05:37:08;15.70;;;9.63;;
22172;SDS011;11252;50.596;17.648;2023-03-13T05:39:36;15.57;;;10.43;;
22172;SDS011;11252;50.596;17.648;2023-03-13T05:42:03;13.57;;;8.93;;
22172;SDS011;11252;50.596;17.648;2023-03-13T05:44:31;14.80;;;8.23;;
22172;SDS011;11252;50.596;17.648;2023-03-13T05:46:58;14.30;;;9.40;;
22172;SDS011;11252;50.596;17.648;2023-03-13T05:49:28;13.33;;;9.53;;
22172;SDS011;11252;50.596;17.648;2023-03-13T05:51:56;12.83;;;8.80;;
22172;SDS011;11252;50.596;17.648;2023-03-13T05:54:24;15.67;;;8.70;;
22172;SDS011;11252;50.596;17.648;2023-03-13T05:56:52;10.77;;;7.93;;
22172;SDS011;11252;50.596;17.648;2023-03-13T05:59:19;20.43;;;10.53;;
22172;SDS011;11252;50.596;17.648;2023-03-13T06:01:46;17.60;;;11.50;;
22172;SDS011;11252;50.596;17.648;2023-03-13T06:04:14;15.33;;;9.90;;
22172;SDS011;11252;50.596;17.648;2023-03-13T06:06:41;17.33;;;11.67;;
22172;SDS011;11252;50.596;17.648;2023-03-13T06:09:09;15.23;;;10.67;;
22172;SDS011;11252;50.596;17.648;2023-03-13T06:11:37;19.33;;;10.07;;
22172;SDS011;11252;50.596;17.648;2023-03-13T06:14:05;17.00;;;9.33;;
22172;SDS011;11252;50.596;17.648;2023-03-13T06:16:32;14.23;;;9.60;;
22172;SDS011;11252;50.596;17.648;2023-03-13T06:19:00;14.53;;;9.97;;
22172;SDS011;11252;50.596;17.648;2023-03-13T06:21:27;13.93;;;8.97;;
22172;SDS011;11252;50.596;17.648;2023-03-13T06:23:55;17.40;;;10.90;;
22172;SDS011;11252;50.596;17.648;2023-03-13T06:26:22;15.37;;;10.23;;
22172;SDS011;11252;50.596;17.648;2023-03-13T06:28:51;14.80;;;9.77;;
22172;SDS011;11252;50.596;17.648;2023-03-13T06:31:19;15.03;;;10.30;;
22172;SDS011;11252;50.596;17.648;2023-03-13T06:33:47;14.93;;;9.33;;
22172;SDS011;11252;50.596;17.648;2023-03-13T06:36:18;12.70;;;8.80;;
22172;SDS011;11252;50.596;17.648;2023-03-13T06:38:45;16.87;;;9.97;;
22172;SDS011;11252;50.596;17.648;2023-03-13T06:41:13;16.27;;;10.17;;
22172;SDS011;11252;50.596;17.648;2023-03-13T06:43:41;15.33;;;10.37;;
22172;SDS011;11252;50.596;17.648;2023-03-13T06:46:14;15.67;;;9.70;;
22172;SDS011;11252;50.596;17.648;2023-03-13T06:48:43;14.23;;;10.53;;
22172;SDS011;11252;50.596;17.648;2023-03-13T06:51:12;14.80;;;9.40;;
22172;SDS011;11252;50.596;17.648;2023-03-13T06:53:41;16.20;;;9.17;;
22172;SDS011;11252;50.596;17.648;2023-03-13T06:56:09;31.33;;;16.03;;
22172;SDS011;11252;50.596;17.648;2023-03-13T06:58:37;17.93;;;9.30;;
22172;SDS011;11252;50.596;17.648;2023-03-13T07:01:06;13.20;;;7.30;;
22172;SDS011;11252;50.596;17.648;2023-03-13T07:03:38;11.60;;;5.90;;
22172;SDS011;11252;50.596;17.648;2023-03-13T07:06:07;11.03;;;6.50;;
22172;SDS011;11252;50.596;17.648;2023-03-13T07:08:36;9.20;;;5.97;;
22172;SDS011;11252;50.596;17.648;2023-03-13T07:11:05;13.43;;;7.60;;
22172;SDS011;11252;50.596;17.648;2023-03-13T07:13:34;12.73;;;7.07;;
22172;SDS011;11252;50.596;17.648;2023-03-13T07:16:03;14.63;;;9.40;;
22172;SDS011;11252;50.596;17.648;2023-03-13T07:18:32;12.43;;;7.40;;
22172;SDS011;11252;50.596;17.648;2023-03-13T07:21:01;14.70;;;9.23;;
22172;SDS011;11252;50.596;17.648;2023-03-13T07:23:33;17.83;;;8.63;;
22172;SDS011;11252;50.596;17.648;2023-03-13T07:26:03;10.63;;;7.70;;
22172;SDS011;11252;50.596;17.648;2023-03-13T07:28:36;16.40;;;7.57;;
22172;SDS011;11252;50.596;17.648;2023-03-13T07:33:42;14.23;;;7.10;;
22172;SDS011;11252;50.596;17.648;2023-03-13T07:36:11;12.50;;;7.50;;
22172;SDS011;11252;50.596;17.648;2023-03-13T07:38:40;15.07;;;6.70;;
22172;SDS011;11252;50.596;17.648;2023-03-13T07:41:10;15.03;;;7.97;;
22172;SDS011;11252;50.596;17.648;2023-03-13T07:43:48;20.97;;;9.10;;
22172;SDS011;11252;50.596;17.648;2023-03-13T07:46:17;9.97;;;6.00;;
22172;SDS011;11252;50.596;17.648;2023-03-13T07:48:45;8.40;;;6.17;;
22172;SDS011;11252;50.596;17.648;2023-03-13T07:51:14;10.03;;;6.50;;
22172;SDS011;11252;50.596;17.648;2023-03-13T07:53:43;13.57;;;6.77;;
22172;SDS011;11252;50.596;17.648;2023-03-13T07:56:14;9.13;;;6.27;;
22172;SDS011;11252;50.596;17.648;2023-03-13T07:58:43;10.03;;;6.13;;
22172;SDS011;11252;50.596;17.648;2023-03-13T08:01:12;11.07;;;7.20;;
22172;SDS011;11252;50.596;17.648;2023-03-13T08:03:42;9.27;;;7.20;;
22172;SDS011;11252;50.596;17.648;2023-03-13T08:06:13;9.90;;;6.17;;
22172;SDS011;11252;50.596;17.648;2023-03-13T08:08:45;10.60;;;6.50;;
22172;SDS011;11252;50.596;17.648;2023-03-13T08:11:17;12.70;;;7.23;;
22172;SDS011;11252;50.596;17.648;2023-03-13T08:13:46;72.23;;;50.03;;
22172;SDS011;11252;50.596;17.648;2023-03-13T08:16:25;17.93;;;9.27;;
22172;SDS011;11252;50.596;17.648;2023-03-13T08:18:54;14.20;;;8.63;;
22172;SDS011;11252;50.596;17.648;2023-03-13T08:21:27;13.43;;;7.10;;
22172;SDS011;11252;50.596;17.648;2023-03-13T08:23:57;14.17;;;7.83;;
22172;SDS011;11252;50.596;17.648;2023-03-13T08:26:26;10.93;;;7.97;;
22172;SDS011;11252;50.596;17.648;2023-03-13T08:28:56;14.00;;;8.50;;
22172;SDS011;11252;50.596;17.648;2023-03-13T08:31:26;12.77;;;7.07;;
22172;SDS011;11252;50.596;17.648;2023-03-13T08:34:00;8.40;;;5.73;;
22172;SDS011;11252;50.596;17.648;2023-03-13T08:36:32;9.37;;;6.33;;
22172;SDS011;11252;50.596;17.648;2023-03-13T08:39:02;9.00;;;5.20;;
22172;SDS011;11252;50.596;17.648;2023-03-13T08:41:32;10.37;;;6.30;;
22172;SDS011;11252;50.596;17.648;2023-03-13T08:44:04;10.57;;;5.77;;
22172;SDS011;11252;50.596;17.648;2023-03-13T08:46:34;8.43;;;5.73;;
22172;SDS011;11252;50.596;17.648;2023-03-13T08:49:02;9.17;;;6.33;;
22172;SDS011;11252;50.596;17.648;2023-03-13T08:51:32;9.37;;;5.50;;
22172;SDS011;11252;50.596;17.648;2023-03-13T08:54:00;10.73;;;5.43;;
22172;SDS011;11252;50.596;17.648;2023-03-13T08:56:29;9.60;;;5.17;;
22172;SDS011;11252;50.596;17.648;2023-03-13T08:58:59;10.00;;;6.17;;
22172;SDS011;11252;50.596;17.648;2023-03-13T09:01:28;11.00;;;7.53;;
22172;SDS011;11252;50.596;17.648;2023-03-13T09:03:57;14.10;;;10.33;;
22172;SDS011;11252;50.596;17.648;2023-03-13T09:06:29;10.47;;;6.27;;
22172;SDS011;11252;50.596;17.648;2023-03-13T09:08:57;10.27;;;6.53;;
22172;SDS011;11252;50.596;17.648;2023-03-13T09:11:24;10.87;;;5.80;;
22172;SDS011;11252;50.596;17.648;2023-03-13T09:13:53;8.20;;;5.53;;
22172;SDS011;11252;50.596;17.648;2023-03-13T09:16:22;8.30;;;4.70;;
22172;SDS011;11252;50.596;17.648;2023-03-13T09:18:51;11.50;;;5.87;;
22172;SDS011;11252;50.596;17.648;2023-03-13T09:21:25;16.97;;;8.43;;
22172;SDS011;11252;50.596;17.648;2023-03-13T09:23:55;11.00;;;6.23;;
22172;SDS011;11252;50.596;17.648;2023-03-13T09:26:26;17.70;;;7.73;;
22172;SDS011;11252;50.596;17.648;2023-03-13T09:28:54;11.93;;;5.60;;
22172;SDS011;11252;50.596;17.648;2023-03-13T09:31:23;9.47;;;5.07;;
22172;SDS011;11252;50.596;17.648;2023-03-13T09:33:55;9.63;;;5.53;;
22172;SDS011;11252;50.596;17.648;2023-03-13T09:36:23;12.20;;;6.23;;
22172;SDS011;11252;50.596;17.648;2023-03-13T09:38:53;11.87;;;5.87;;
22172;SDS011;11252;50.596;17.648;2023-03-13T09:43:54;11.10;;;5.70;;
22172;SDS011;11252;50.596;17.648;2023-03-13T09:49:37;12.50;;;7.03;;
22172;SDS011;11252;50.596;17.648;2023-03-13T09:52:14;15.33;;;7.00;;
22172;SDS011;11252;50.596;17.648;2023-03-13T09:54:51;15.63;;;7.93;;
22172;SDS011;11252;50.596;17.648;2023-03-13T09:58:13;15.60;;;6.60;;
22172;SDS011;11252;50.596;17.648;2023-03-13T10:00:30;17.03;;;7.47;;
22172;SDS011;11252;50.596;17.648;2023-03-13T10:06:03;31.80;;;16.67;;
22172;SDS011;11252;50.596;17.648;2023-03-13T10:08:44;15.10;;;6.80;;
22172;SDS011;11252;50.596;17.648;2023-03-13T10:14:29;22.43;;;10.80;;
22172;SDS011;11252;50.596;17.648;2023-03-13T10:22:40;10.10;;;5.53;;
22172;SDS011;11252;50.596;17.648;2023-03-13T10:25:18;14.40;;;6.53;;
22172;SDS011;11252;50.596;17.648;2023-03-13T10:27:53;12.53;;;5.83;;
22172;SDS011;11252;50.596;17.648;2023-03-13T10:30:31;25.37;;;11.17;;
22172;SDS011;11252;50.596;17.648;2023-03-13T10:35:34;12.27;;;6.10;;
22172;SDS011;11252;50.596;17.648;2023-03-13T10:38:07;15.47;;;5.93;;
22172;SDS011;11252;50.596;17.648;2023-03-13T10:40:58;16.50;;;4.67;;
22172;SDS011;11252;50.596;17.648;2023-03-13T10:43:51;15.40;;;5.60;;
22172;SDS011;11252;50.596;17.648;2023-03-13T10:46:27;12.00;;;5.67;;
22172;SDS011;11252;50.596;17.648;2023-03-13T10:48:59;15.27;;;5.20;;
22172;SDS011;11252;50.596;17.648;2023-03-13T10:51:34;11.77;;;5.17;;
22172;SDS011;11252;50.596;17.648;2023-03-13T10:54:14;11.93;;;4.17;;
22172;SDS011;11252;50.596;17.648;2023-03-13T10:56:42;8.27;;;3.93;;
22172;SDS011;11252;50.596;17.648;2023-03-13T10:59:25;16.53;;;6.77;;
22172;SDS011;11252;50.596;17.648;2023-03-13T11:01:57;13.27;;;4.83;;
22172;SDS011;11252;50.596;17.648;2023-03-13T11:07:15;12.33;;;4.33;;
22172;SDS011;11252;50.596;17.648;2023-03-13T11:10:01;13.77;;;4.50;;
22172;SDS011;11252;50.596;17.648;2023-03-13T11:12:50;9.10;;;4.70;;
22172;SDS011;11252;50.596;17.648;2023-03-13T11:15:24;7.43;;;4.03;;
22172;SDS011;11252;50.596;17.648;2023-03-13T11:20:35;12.83;;;4.50;;
22172;SDS011;11252;50.596;17.648;2023-03-13T11:23:10;9.87;;;5.03;;
22172;SDS011;11252;50.596;17.648;2023-03-13T11:26:00;11.90;;;5.30;;
22172;SDS011;11252;50.596;17.648;2023-03-13T11:31:30;15.47;;;5.33;;
22172;SDS011;11252;50.596;17.648;2023-03-13T11:34:16;12.30;;;4.63;;
22172;SDS011;11252;50.596;17.648;2023-03-13T11:37:10;8.73;;;4.00;;
22172;SDS011;11252;50.596;17.648;2023-03-13T11:39:42;11.17;;;6.87;;
22172;SDS011;11252;50.596;17.648;2023-03-13T11:50:51;12.17;;;4.30;;
22172;SDS011;11252;50.596;17.648;2023-03-13T11:56:09;12.30;;;5.30;;
22172;SDS011;11252;50.596;17.648;2023-03-13T11:59:06;10.03;;;5.33;;
22172;SDS011;11252;50.596;17.648;2023-03-13T12:01:53;8.83;;;4.10;;
22172;SDS011;11252;50.596;17.648;2023-03-13T12:07:20;11.43;;;5.53;;
22172;SDS011;11252;50.596;17.648;2023-03-13T12:09:56;18.40;;;10.97;;
22172;SDS011;11252;50.596;17.648;2023-03-13T12:12:48;17.37;;;7.20;;
22172;SDS011;11252;50.596;17.648;2023-03-13T12:15:42;12.57;;;5.07;;
22172;SDS011;11252;50.596;17.648;2023-03-13T12:21:22;10.77;;;4.40;;
22172;SDS011;11252;50.596;17.648;2023-03-13T12:24:10;13.17;;;3.87;;
22172;SDS011;11252;50.596;17.648;2023-03-13T12:30:00;9.83;;;3.77;;
22172;SDS011;11252;50.596;17.648;2023-03-13T12:35:19;6.37;;;2.73;;
22172;SDS011;11252;50.596;17.648;2023-03-13T12:40:48;4.20;;;2.73;;
22172;SDS011;11252;50.596;17.648;2023-03-13T12:43:34;5.57;;;2.80;;
22172;SDS011;11252;50.596;17.648;2023-03-13T12:46:14;6.80;;;3.13;;
22172;SDS011;11252;50.596;17.648;2023-03-13T12:52:13;6.10;;;3.10;;
22172;SDS011;11252;50.596;17.648;2023-03-13T12:58:07;19.60;;;9.40;;
22172;SDS011;11252;50.596;17.648;2023-03-13T13:00:39;6.43;;;3.47;;
22172;SDS011;11252;50.596;17.648;2023-03-13T13:08:41;23.63;;;11.80;;
22172;SDS011;11252;50.596;17.648;2023-03-13T13:11:55;22.13;;;12.63;;
22172;SDS011;11252;50.596;17.648;2023-03-13T13:16:44;6.30;;;3.53;;
22172;SDS011;11252;50.596;17.648;2023-03-13T13:25:44;11.50;;;6.37;;
22172;SDS011;11252;50.596;17.648;2023-03-13T13:28:09;7.40;;;4.50;;
22172;SDS011;11252;50.596;17.648;2023-03-13T13:30:50;11.13;;;6.47;;
22172;SDS011;11252;50.596;17.648;2023-03-13T13:38:51;17.60;;;11.17;;
22172;SDS011;11252;50.596;17.648;2023-03-13T13:41:22;11.40;;;5.00;;
22172;SDS011;11252;50.596;17.648;2023-03-13T13:46:49;7.33;;;4.17;;
22172;SDS011;11252;50.596;17.648;2023-03-13T13:49:20;6.43;;;4.70;;
22172;SDS011;11252;50.596;17.648;2023-03-13T13:57:14;4.57;;;2.57;;
22172;SDS011;11252;50.596;17.648;2023-03-13T13:59:50;16.10;;;6.53;;
22172;SDS011;11252;50.596;17.648;2023-03-13T14:02:36;55.50;;;17.33;;
22172;SDS011;11252;50.596;17.648;2023-03-13T14:05:19;22.37;;;9.37;;
22172;SDS011;11252;50.596;17.648;2023-03-13T14:07:59;19.03;;;7.50;;
22172;SDS011;11252;50.596;17.648;2023-03-13T14:10:41;7.03;;;3.37;;
22172;SDS011;11252;50.596;17.648;2023-03-13T14:15:46;18.00;;;7.47;;
22172;SDS011;11252;50.596;17.648;2023-03-13T14:18:25;15.53;;;6.80;;
22172;SDS011;11252;50.596;17.648;2023-03-13T14:21:03;5.80;;;2.77;;
22172;SDS011;11252;50.596;17.648;2023-03-13T14:23:44;12.57;;;4.37;;
22172;SDS011;11252;50.596;17.648;2023-03-13T14:26:26;12.83;;;4.97;;
22172;SDS011;11252;50.596;17.648;2023-03-13T14:28:56;21.17;;;7.40;;
22172;SDS011;11252;50.596;17.648;2023-03-13T14:31:36;12.23;;;5.23;;
22172;SDS011;11252;50.596;17.648;2023-03-13T14:34:08;10.93;;;4.97;;
22172;SDS011;11252;50.596;17.648;2023-03-13T14:36:48;18.03;;;7.93;;
22172;SDS011;11252;50.596;17.648;2023-03-13T14:42:00;34.67;;;11.93;;
22172;SDS011;11252;50.596;17.648;2023-03-13T14:44:30;36.13;;;12.13;;
22172;SDS011;11252;50.596;17.648;2023-03-13T14:47:06;13.00;;;5.60;;
22172;SDS011;11252;50.596;17.648;2023-03-13T14:49:46;14.77;;;6.47;;
22172;SDS011;11252;50.596;17.648;2023-03-13T14:52:18;18.70;;;6.93;;
22172;SDS011;11252;50.596;17.648;2023-03-13T14:57:23;13.30;;;6.70;;
22172;SDS011;11252;50.596;17.648;2023-03-13T15:00:20;14.90;;;6.20;;
22172;SDS011;11252;50.596;17.648;2023-03-13T15:05:46;16.40;;;10.13;;
22172;SDS011;11252;50.596;17.648;2023-03-13T15:09:09;12.27;;;6.97;;
22172;SDS011;11252;50.596;17.648;2023-03-13T15:11:54;8.30;;;4.70;;
22172;SDS011;11252;50.596;17.648;2023-03-13T15:17:13;14.50;;;7.50;;
22172;SDS011;11252;50.596;17.648;2023-03-13T15:19:46;13.27;;;8.97;;
22172;SDS011;11252;50.596;17.648;2023-03-13T15:22:24;13.63;;;8.80;;
22172;SDS011;11252;50.596;17.648;2023-03-13T15:24:56;14.03;;;8.50;;
22172;SDS011;11252;50.596;17.648;2023-03-13T15:27:36;22.90;;;12.33;;
22172;SDS011;11252;50.596;17.648;2023-03-13T15:30:04;12.73;;;7.40;;
22172;SDS011;11252;50.596;17.648;2023-03-13T15:32:33;10.90;;;5.80;;
22172;SDS011;11252;50.596;17.648;2023-03-13T15:37:54;16.60;;;12.40;;
22172;SDS011;11252;50.596;17.648;2023-03-13T15:40:23;12.67;;;9.10;;
22172;SDS011;11252;50.596;17.648;2023-03-13T15:42:51;18.47;;;11.03;;
22172;SDS011;11252;50.596;17.648;2023-03-13T15:45:20;15.30;;;10.07;;
22172;SDS011;11252;50.596;17.648;2023-03-13T15:47:48;16.70;;;9.40;;
22172;SDS011;11252;50.596;17.648;2023-03-13T15:50:17;37.23;;;20.37;;
22172;SDS011;11252;50.596;17.648;2023-03-13T15:52:45;140.27;;;70.17;;
22172;SDS011;11252;50.596;17.648;2023-03-13T15:55:13;323.57;;;162.33;;
22172;SDS011;11252;50.596;17.648;2023-03-13T15:57:43;310.47;;;148.53;;
22172;SDS011;11252;50.596;17.648;2023-03-13T16:00:14;533.73;;;274.47;;
22172;SDS011;11252;50.596;17.648;2023-03-13T16:02:42;216.80;;;112.50;;
22172;SDS011;11252;50.596;17.648;2023-03-13T16:05:10;276.70;;;190.90;;
22172;SDS011;11252;50.596;17.648;2023-03-13T16:07:37;68.53;;;57.87;;
22172;SDS011;11252;50.596;17.648;2023-03-13T16:10:11;18.00;;;14.70;;
22172;SDS011;11252;50.596;17.648;2023-03-13T16:12:42;18.97;;;13.90;;
22172;SDS011;11252;50.596;17.648;2023-03-13T16:15:10;27.47;;;19.37;;
22172;SDS011;11252;50.596;17.648;2023-03-13T16:17:37;28.30;;;17.77;;
22172;SDS011;11252;50.596;17.648;2023-03-13T16:20:14;20.40;;;14.87;;
22172;SDS011;11252;50.596;17.648;2023-03-13T16:22:47;28.27;;;18.43;;
22172;SDS011;11252;50.596;17.648;2023-03-13T16:25:18;22.17;;;13.40;;
22172;SDS011;11252;50.596;17.648;2023-03-13T16:27:46;18.40;;;12.20;;
22172;SDS011;11252;50.596;17.648;2023-03-13T16:30:18;19.33;;;13.47;;
22172;SDS011;11252;50.596;17.648;2023-03-13T16:32:52;16.73;;;10.10;;
22172;SDS011;11252;50.596;17.648;2023-03-13T16:35:20;12.03;;;8.83;;
22172;SDS011;11252;50.596;17.648;2023-03-13T16:37:48;19.97;;;13.23;;
22172;SDS011;11252;50.596;17.648;2023-03-13T16:40:20;49.70;;;31.30;;
22172;SDS011;11252;50.596;17.648;2023-03-13T16:42:58;18.27;;;12.20;;